createdAt,value
2019-04-14T00:01:08.987Z,100681.41
2019-04-14T00:03:47.782Z,100680.42
2019-04-14T00:06:18.597Z,100684.50
2019-04-14T00:08:50.145Z,100686.75
2019-04-14T00:11:21.478Z,100694.41
2019-04-14T00:13:52.436Z,100693.73
2019-04-14T00:16:22.873Z,100687.31
2019-04-14T00:18:53.513Z,100691.89
2019-04-14T00:21:23.954Z,100688.03
2019-04-14T00:23:54.526Z,100684.80
2019-04-14T00:26:31.623Z,100679.05
2019-04-14T00:29:02.657Z,100678.81
2019-04-14T00:31:33.336Z,100675.19
2019-04-14T00:34:07.925Z,100668.77
2019-04-14T00:36:46.553Z,100671.83
2019-04-14T00:39:38.195Z,100663.91
2019-04-14T00:42:25.637Z,100667.36
2019-04-14T00:45:00.470Z,100661.19
2019-04-14T00:47:49.827Z,100669.97
2019-04-14T00:50:10.258Z,100663.94
2019-04-14T00:52:41.533Z,100661.81
2019-04-14T00:55:12.054Z,100664.75
2019-04-14T00:57:42.547Z,100670.73
2019-04-14T01:00:17.253Z,100675.35
2019-04-14T01:02:47.186Z,100675.67
2019-04-14T01:05:17.760Z,100669.17
2019-04-14T01:07:48.591Z,100660.70
2019-04-14T01:10:19.251Z,100654.78
2019-04-14T01:12:49.842Z,100661.20
2019-04-14T01:15:20.268Z,100670.06
2019-04-14T01:17:50.752Z,100668.35
2019-04-14T01:20:23.159Z,100676.80
2019-04-14T01:22:53.670Z,100676.36
2019-04-14T01:25:24.107Z,100679.27
2019-04-14T01:27:54.599Z,100687.48
2019-04-14T01:30:26.202Z,100684.09
2019-04-14T01:32:56.742Z,100677.90
2019-04-14T01:35:27.613Z,100679.69
2019-04-14T01:37:59.347Z,100674.87
2019-04-14T01:40:31.465Z,100677.98
2019-04-14T01:43:02.382Z,100679.91
2019-04-14T01:45:33.891Z,100678.20
2019-04-14T01:48:04.549Z,100675.48
2019-04-14T01:50:47.965Z,100684.00
2019-04-14T01:53:27.755Z,100678.66
2019-04-14T01:56:16.535Z,100681.20
2019-04-14T01:58:51.229Z,100685.71
2019-04-14T02:01:28.201Z,100685.15
2019-04-14T02:03:58.706Z,100686.64
2019-04-14T02:06:29.143Z,100687.64
2019-04-14T02:08:59.631Z,100690.50
2019-04-14T02:11:31.279Z,100696.61
2019-04-14T02:14:02.057Z,100691.59
2019-04-14T02:16:39.527Z,100697.79
2019-04-14T02:19:04.819Z,100697.79
2019-04-14T02:21:36.597Z,100698.88
2019-04-14T02:24:07.320Z,100700.42
2019-04-14T02:26:37.767Z,100696.25
2019-04-14T02:29:08.208Z,100685.15
2019-04-14T02:32:01.488Z,100679.80
2019-04-14T02:34:41.667Z,100681.50
2019-04-14T02:37:10.655Z,100672.06
2019-04-14T02:39:45.987Z,100668.98
2019-04-14T02:44:43.987Z,100676.45
2019-04-14T02:47:39.133Z,100680.40
2019-04-14T02:49:51.226Z,100685.67
2019-04-14T02:52:28.259Z,100688.79
2019-04-14T02:57:43.071Z,100693.31
2019-04-14T02:59:58.831Z,100701.54
2019-04-14T03:02:39.891Z,100699.04
2019-04-14T03:07:36.306Z,100709.73
2019-04-14T03:10:16.401Z,100709.34
2019-04-14T03:12:40.705Z,100708.89
2019-04-14T03:15:17.050Z,100712.30
2019-04-14T03:18:23.999Z,100717.09
2019-04-14T03:20:58.417Z,100714.83
2019-04-14T03:26:11.781Z,100703.78
2019-04-14T03:28:51.659Z,100703.08
2019-04-14T03:39:07.996Z,100709.80
2019-04-14T03:41:36.729Z,100700.52
2019-04-14T03:44:09.848Z,100703.98
2019-04-14T03:46:45.059Z,100707.70
2019-04-14T03:51:52.525Z,100713.14
2019-04-14T03:54:09.712Z,100715.22
2019-04-14T03:56:49.058Z,100705.31
2019-04-14T03:59:21.696Z,100708.79
2019-04-14T04:01:52.888Z,100698.73
2019-04-14T04:04:24.870Z,100708.95
2019-04-14T04:06:55.934Z,100707.32
2019-04-14T04:09:36.798Z,100712.59
2019-04-14T04:12:07.547Z,100713.06
2019-04-14T04:14:37.929Z,100714.51
2019-04-14T04:17:34.271Z,100721.09
2019-04-14T04:20:43.480Z,100720.73
2019-04-14T04:23:33.497Z,100728.06
2019-04-14T04:26:25.893Z,100723.72
2019-04-14T04:29:33.722Z,100722.72
2019-04-14T04:32:25.393Z,100722.88
2019-04-14T04:35:08.578Z,100723.67
2019-04-14T04:37:52.038Z,100722.48
2019-04-14T04:40:26.812Z,100725.83
2019-04-14T04:42:59.110Z,100724.12
2019-04-14T04:45:30.084Z,100731.72
2019-04-14T04:48:00.585Z,100728.63
2019-04-14T04:50:32.393Z,100729.30
2019-04-14T04:53:02.981Z,100726.35
2019-04-14T04:55:35.082Z,100734.97
2019-04-14T04:58:05.735Z,100742.78
2019-04-14T05:00:37.276Z,100744.22
2019-04-14T05:03:07.967Z,100742.22
2019-04-14T05:06:09.120Z,100740.23
2019-04-14T05:08:43.994Z,100733.80
2019-04-14T05:11:23.064Z,100740.22
2019-04-14T05:13:53.921Z,100743.02
2019-04-14T05:16:25.953Z,100745.25
2019-04-14T05:19:10.095Z,100733.65
2019-04-14T05:21:29.894Z,100736.67
2019-04-14T05:24:00.676Z,100743.00
2019-04-14T05:26:31.194Z,100743.19
2019-04-14T05:29:01.704Z,100748.45
2019-04-14T05:31:32.149Z,100744.73
2019-04-14T05:34:02.613Z,100749.31
2019-04-14T05:36:34.422Z,100741.87
2019-04-14T05:39:06.839Z,100742.50
2019-04-14T05:41:37.547Z,100747.47
2019-04-14T05:44:08.093Z,100743.34
2019-04-14T05:46:38.530Z,100753.19
2019-04-14T05:49:08.965Z,100753.25
2019-04-14T05:51:39.460Z,100757.76
2019-04-14T05:54:10.049Z,100759.39
2019-04-14T05:56:40.766Z,100760.84
2019-04-14T05:59:11.420Z,100764.09
2019-04-14T06:01:42.112Z,100763.03
2019-04-14T06:04:13.895Z,100767.60
2019-04-14T06:06:44.394Z,100761.07
2019-04-14T06:09:15.161Z,100764.72
2019-04-14T06:11:45.627Z,100756.64
2019-04-14T06:14:16.114Z,100765.47
2019-04-14T06:16:46.553Z,100757.66
2019-04-14T06:19:17.326Z,100761.69
2019-04-14T06:21:48.335Z,100762.22
2019-04-14T06:24:18.769Z,100761.34
2019-04-14T06:26:49.206Z,100765.38
2019-04-14T06:29:20.006Z,100763.45
2019-04-14T06:32:09.382Z,100759.00
2019-04-14T06:34:57.748Z,100759.54
2019-04-14T06:37:49.884Z,100753.56
2019-04-14T06:40:20.811Z,100760.94
2019-04-14T06:42:51.248Z,100767.23
2019-04-14T06:45:21.981Z,100761.59
2019-04-14T06:47:53.292Z,100762.27
2019-04-14T06:50:24.087Z,100761.06
2019-04-14T06:52:54.536Z,100763.91
2019-04-14T06:55:25.158Z,100754.59
2019-04-14T06:57:55.916Z,100760.79
2019-04-14T07:00:26.694Z,100761.25
2019-04-14T07:02:57.942Z,100759.90
2019-04-14T07:05:28.381Z,100760.00
2019-04-14T07:07:58.814Z,100755.89
2019-04-14T07:10:29.322Z,100760.75
2019-04-14T07:12:59.761Z,100759.06
2019-04-14T07:15:30.200Z,100758.13
2019-04-14T07:18:00.679Z,100766.41
2019-04-14T07:20:31.115Z,100766.97
2019-04-14T07:23:01.897Z,100763.77
2019-04-14T07:25:32.407Z,100761.89
2019-04-14T07:28:02.855Z,100765.57
2019-04-14T07:30:42.863Z,100768.43
2019-04-14T07:33:35.062Z,100766.45
2019-04-14T07:36:22.955Z,100764.83
2019-04-14T07:39:06.474Z,100767.65
2019-04-14T07:41:43.885Z,100773.22
2019-04-14T07:44:24.434Z,100778.99
2019-04-14T07:46:58.692Z,100777.16
2019-04-14T07:49:56.994Z,100780.58
2019-04-14T07:52:34.719Z,100776.92
2019-04-14T07:55:23.116Z,100780.79
2019-04-14T07:58:04.227Z,100780.36
2019-04-14T08:00:52.011Z,100781.98
2019-04-14T08:03:44.306Z,100780.13
2019-04-14T08:06:14.746Z,100779.89
2019-04-14T08:08:45.191Z,100785.30
2019-04-14T08:11:15.695Z,100784.81
2019-04-14T08:13:46.501Z,100788.75
2019-04-14T08:16:16.950Z,100792.69
2019-04-14T08:18:47.499Z,100791.57
2019-04-14T08:21:18.310Z,100786.76
2019-04-14T08:23:48.747Z,100786.66
2019-04-14T08:26:21.014Z,100790.79
2019-04-14T08:28:51.460Z,100785.71
2019-04-14T08:31:22.278Z,100783.13
2019-04-14T08:33:52.866Z,100785.93
2019-04-14T08:36:23.306Z,100791.92
2019-04-14T08:38:53.757Z,100795.49
2019-04-14T08:41:24.613Z,100789.61
2019-04-14T08:44:01.928Z,100789.34
2019-04-14T08:46:50.607Z,100783.16
2019-04-14T08:49:51.988Z,100780.20
2019-04-14T08:52:28.283Z,100791.23
2019-04-14T08:55:18.099Z,100793.11
2019-04-14T08:57:55.312Z,100797.98
2019-04-14T09:00:41.655Z,100799.70
2019-04-14T09:03:23.559Z,100792.08
2019-04-14T09:06:11.846Z,100795.06
2019-04-14T09:08:52.894Z,100791.91
2019-04-14T09:11:29.629Z,100795.11
2019-04-14T09:14:00.122Z,100796.20
2019-04-14T09:16:30.569Z,100799.58
2019-04-14T09:19:07.407Z,100796.92
2019-04-14T09:21:33.621Z,100802.91
2019-04-14T09:24:04.171Z,100800.83
2019-04-14T09:26:34.648Z,100799.69
2019-04-14T09:29:05.134Z,100806.48
2019-04-14T09:31:35.974Z,100798.52
2019-04-14T09:34:06.445Z,100789.16
2019-04-14T09:36:37.327Z,100791.92
2019-04-14T09:39:08.697Z,100792.92
2019-04-14T09:41:39.169Z,100796.90
2019-04-14T09:44:10.621Z,100790.45
2019-04-14T09:46:41.058Z,100795.16
2019-04-14T09:49:11.499Z,100800.38
2019-04-14T09:51:42.381Z,100801.44
2019-04-14T09:54:13.307Z,100803.55
2019-04-14T09:56:43.750Z,100808.63
2019-04-14T09:59:14.590Z,100804.59
2019-04-14T10:01:45.225Z,100809.22
2019-04-14T10:04:15.694Z,100803.81
2019-04-14T10:06:46.219Z,100803.54
2019-04-14T10:09:17.023Z,100808.33
2019-04-14T10:11:51.150Z,100803.20
2019-04-14T10:14:20.149Z,100802.86
2019-04-14T10:16:51.082Z,100798.17
2019-04-14T10:19:21.530Z,100798.93
2019-04-14T10:21:52.037Z,100808.89
2019-04-14T10:24:22.762Z,100805.72
2019-04-14T10:26:53.598Z,100805.98
2019-04-14T10:29:24.762Z,100802.50
2019-04-14T10:31:55.670Z,100804.17
2019-04-14T10:34:26.848Z,100808.91
2019-04-14T10:36:57.339Z,100808.07
2019-04-14T10:39:27.802Z,100813.56
2019-04-14T10:41:58.541Z,100812.35
2019-04-14T10:44:29.038Z,100813.41
2019-04-14T10:46:59.858Z,100811.39
2019-04-14T10:49:31.483Z,100822.89
2019-04-14T10:52:02.990Z,100815.67
2019-04-14T10:54:33.503Z,100817.27
2019-04-14T10:57:03.937Z,100824.68
2019-04-14T10:59:34.426Z,100825.84
2019-04-14T11:02:05.258Z,100831.25
2019-04-14T11:04:36.098Z,100825.24
2019-04-14T11:07:10.050Z,100833.80
2019-04-14T11:09:40.585Z,100833.20
2019-04-14T11:12:12.158Z,100836.55
2019-04-14T11:14:43.944Z,100836.13
2019-04-14T11:17:14.390Z,100830.44
2019-04-14T11:19:44.840Z,100832.64
2019-04-14T11:22:15.322Z,100832.69
2019-04-14T11:24:46.085Z,100839.09
2019-04-14T11:27:16.862Z,100837.56
2019-04-14T11:29:47.767Z,100835.18
2019-04-14T11:32:43.077Z,100833.58
2019-04-14T11:35:19.111Z,100838.45
2019-04-14T11:38:12.076Z,100841.48
2019-04-14T11:40:45.578Z,100837.13
2019-04-14T11:43:16.016Z,100845.30
2019-04-14T11:45:46.834Z,100841.94
2019-04-14T11:48:18.335Z,100841.86
2019-04-14T11:50:49.163Z,100847.08
2019-04-14T11:53:19.650Z,100839.22
2019-04-14T11:55:50.498Z,100846.23
2019-04-14T11:58:21.009Z,100851.81
2019-04-14T12:01:13.523Z,100852.38
2019-04-14T12:03:53.824Z,100845.96
2019-04-14T12:06:45.296Z,100855.89
2019-04-14T12:09:22.060Z,100855.45
2019-04-14T12:11:52.741Z,100855.18
2019-04-14T12:14:23.268Z,100854.31
2019-04-14T12:16:54.214Z,100854.91
2019-04-14T12:19:24.700Z,100861.59
2019-04-14T12:22:07.411Z,100861.70
2019-04-14T12:24:27.730Z,100856.52
2019-04-14T12:26:59.914Z,100865.06
2019-04-14T12:29:32.467Z,100862.20
2019-04-14T12:32:06.294Z,100863.20
2019-04-14T12:34:36.795Z,100873.23
2019-04-14T12:37:07.233Z,100870.94
2019-04-14T12:39:37.728Z,100872.81
2019-04-14T12:42:22.308Z,100869.50
2019-04-14T12:45:00.942Z,100876.23
2019-04-14T12:47:41.879Z,100866.17
2019-04-14T12:50:21.034Z,100870.69
2019-04-14T12:52:51.500Z,100871.82
2019-04-14T12:55:21.950Z,100873.30
2019-04-14T12:57:55.508Z,100876.70
2019-04-14T13:00:45.194Z,100876.45
2019-04-14T13:03:16.105Z,100875.89
2019-04-14T13:05:46.611Z,100878.66
2019-04-14T13:08:17.048Z,100876.77
2019-04-14T13:10:47.564Z,100874.73
2019-04-14T13:13:18.018Z,100871.70
2019-04-14T13:15:48.755Z,100877.23
2019-04-14T13:18:19.238Z,100874.56
2019-04-14T13:20:49.688Z,100873.02
2019-04-14T13:23:20.801Z,100874.56
2019-04-14T13:25:51.645Z,100866.23
2019-04-14T13:28:22.095Z,100870.48
2019-04-14T13:30:53.150Z,100873.13
2019-04-14T13:33:23.957Z,100870.27
2019-04-14T13:35:54.790Z,100871.87
2019-04-14T13:38:25.830Z,100872.98
2019-04-14T13:40:56.326Z,100876.50
2019-04-14T13:43:27.063Z,100871.11
2019-04-14T13:45:59.824Z,100872.08
2019-04-14T13:48:29.730Z,100874.75
2019-04-14T13:51:00.178Z,100868.11
2019-04-14T13:53:30.617Z,100872.43
2019-04-14T13:56:01.118Z,100869.11
2019-04-14T13:58:31.933Z,100874.24
2019-04-14T14:01:02.678Z,100869.43
2019-04-14T14:03:33.799Z,100868.11
2019-04-14T14:06:04.629Z,100867.23
2019-04-14T14:08:35.057Z,100869.70
2019-04-14T14:11:24.647Z,100863.15
2019-04-14T14:13:59.913Z,100868.38
2019-04-14T14:16:52.378Z,100865.91
2019-04-14T14:19:35.340Z,100860.77
2019-04-14T14:22:16.017Z,100856.52
2019-04-14T14:24:55.029Z,100858.82
2019-04-14T14:27:25.868Z,100860.33
2019-04-14T14:29:57.321Z,100863.03
2019-04-14T14:32:31.138Z,100865.13
2019-04-14T14:35:01.584Z,100859.28
2019-04-14T14:37:34.117Z,100858.50
2019-04-14T14:40:05.340Z,100855.39
2019-04-14T14:42:38.048Z,100858.77
2019-04-14T14:45:27.202Z,100856.80
2019-04-14T14:48:15.278Z,100857.12
2019-04-14T14:51:05.027Z,100854.69
2019-04-14T14:53:35.956Z,100862.38
2019-04-14T14:56:08.172Z,100863.03
2019-04-14T14:58:39.246Z,100861.44
2019-04-14T15:01:09.979Z,100866.84
2019-04-14T15:03:40.451Z,100867.51
2019-04-14T15:06:10.936Z,100861.38
2019-04-14T15:08:41.725Z,100858.83
2019-04-14T15:11:12.192Z,100859.49
2019-04-14T15:13:43.491Z,100862.17
2019-04-14T15:16:14.747Z,100861.69
2019-04-14T15:18:47.507Z,100865.77
2019-04-14T15:21:18.002Z,100861.13
2019-04-14T15:23:48.442Z,100859.98
2019-04-14T15:26:18.887Z,100858.83
2019-04-14T15:28:49.665Z,100853.63
2019-04-14T15:31:20.102Z,100858.38
2019-04-14T15:33:50.575Z,100855.17
2019-04-14T15:36:21.061Z,100862.14
2019-04-14T15:38:51.890Z,100861.41
2019-04-14T15:41:22.334Z,100864.06
2019-04-14T15:43:53.209Z,100861.30
2019-04-14T15:46:23.651Z,100863.78
2019-04-14T15:48:54.110Z,100865.56
2019-04-14T15:51:24.606Z,100864.41
2019-04-14T15:53:55.055Z,100865.00
2019-04-14T15:56:45.227Z,100869.91
2019-04-14T15:59:34.595Z,100862.73
2019-04-14T16:02:27.490Z,100864.90
2019-04-14T16:05:15.906Z,100861.09
2019-04-14T16:08:08.746Z,100861.96
2019-04-14T16:10:44.354Z,100862.97
2019-04-14T16:13:40.307Z,100862.62
2019-04-14T16:16:21.032Z,100860.42
2019-04-14T16:19:02.347Z,100868.83
2019-04-14T16:21:33.168Z,100870.16
2019-04-14T16:24:03.627Z,100865.34
2019-04-14T16:27:05.704Z,100874.52
2019-04-14T16:29:40.827Z,100870.82
2019-04-14T16:32:25.270Z,100876.72
2019-04-14T16:35:01.783Z,100875.28
2019-04-14T16:37:34.009Z,100879.16
2019-04-14T16:40:04.821Z,100874.51
2019-04-14T16:42:35.941Z,100866.67
2019-04-14T16:45:06.902Z,100870.09
2019-04-14T16:47:37.653Z,100869.70
2019-04-14T16:50:09.313Z,100872.14
2019-04-14T16:52:46.394Z,100875.84
2019-04-14T16:55:34.551Z,100874.06
2019-04-14T16:58:36.200Z,100878.94
2019-04-14T17:01:12.367Z,100877.34
2019-04-14T17:03:42.877Z,100884.73
2019-04-14T17:06:13.331Z,100895.89
2019-04-14T17:08:44.133Z,100889.66
2019-04-14T17:11:14.675Z,100890.14
2019-04-14T17:13:50.642Z,100895.61
2019-04-14T17:16:39.189Z,100894.84
2019-04-14T17:19:14.233Z,100893.07
2019-04-14T17:22:12.833Z,100896.21
2019-04-14T17:25:02.479Z,100895.72
2019-04-14T17:27:47.582Z,100896.00
2019-04-14T17:30:32.117Z,100904.30
2019-04-14T17:33:21.605Z,100907.92
2019-04-14T17:36:14.189Z,100903.78
2019-04-14T17:38:57.497Z,100899.59
2019-04-14T17:41:59.591Z,100897.77
2019-04-14T17:44:38.858Z,100901.58
2019-04-14T17:47:34.380Z,100903.25
2019-04-14T17:50:40.660Z,100903.91
2019-04-14T17:53:17.778Z,100913.68
2019-04-14T17:56:06.452Z,100920.87
2019-04-14T17:58:49.823Z,100927.04
2019-04-14T18:01:51.553Z,100926.55
2019-04-14T18:04:47.038Z,100926.27
2019-04-14T18:07:23.582Z,100927.77
2019-04-14T18:10:02.292Z,100926.94
2019-04-14T18:12:38.171Z,100936.59
2019-04-14T18:15:28.087Z,100932.62
2019-04-14T18:18:23.530Z,100931.57
2019-04-14T18:20:57.522Z,100929.09
2019-04-14T18:23:28.316Z,100933.39
2019-04-14T18:25:58.800Z,100936.88
2019-04-14T18:28:41.546Z,100932.69
2019-04-14T18:31:31.345Z,100941.41
2019-04-14T18:34:32.683Z,100946.54
2019-04-14T18:37:28.376Z,100947.69
2019-04-14T18:40:35.789Z,100947.77
2019-04-14T18:43:25.684Z,100959.63
2019-04-14T18:46:15.047Z,100961.99
2019-04-14T18:48:53.634Z,100961.30
2019-04-14T18:51:41.369Z,100966.60
2019-04-14T18:54:30.222Z,100966.42
2019-04-14T18:57:14.437Z,100976.85
2019-04-14T18:59:58.715Z,100978.63
2019-04-14T19:02:29.172Z,100979.58
2019-04-14T19:04:59.652Z,100981.39
2019-04-14T19:07:30.107Z,100988.12
2019-04-14T19:10:02.259Z,100987.94
2019-04-14T19:12:43.203Z,100989.34
2019-04-14T19:15:24.208Z,100988.66
2019-04-14T19:18:16.902Z,100990.11
2019-04-14T19:20:52.355Z,100985.85
2019-04-14T19:23:23.808Z,100998.06
2019-04-14T19:25:54.248Z,100993.31
2019-04-14T19:28:24.686Z,100995.77
2019-04-14T19:30:55.204Z,100990.56
2019-04-14T19:33:26.526Z,100988.20
2019-04-14T19:35:57.326Z,100985.44
2019-04-14T19:38:28.167Z,100989.14
2019-04-14T19:40:58.735Z,100994.34
2019-04-14T19:43:30.665Z,100989.77
2019-04-14T19:46:01.192Z,100992.14
2019-04-14T19:48:32.059Z,100990.81
2019-04-14T19:51:05.843Z,100993.50
2019-04-14T19:53:36.612Z,101002.11
2019-04-14T19:56:07.326Z,101006.37
2019-04-14T19:58:38.305Z,101007.63
2019-04-14T20:01:08.751Z,101006.86
2019-04-14T20:03:39.263Z,101011.78
2019-04-14T20:06:09.790Z,101012.16
2019-04-14T20:08:42.262Z,101013.87
2019-04-14T20:11:12.737Z,101013.87
2019-04-14T20:13:46.038Z,101019.17
2019-04-14T20:16:34.569Z,101013.37
2019-04-14T20:19:27.430Z,101017.74
2019-04-14T20:22:10.882Z,101020.88
2019-04-14T20:25:06.196Z,101015.19
2019-04-14T20:28:01.727Z,101020.11
2019-04-14T20:30:36.493Z,101018.02
2019-04-14T20:33:06.930Z,101021.16
2019-04-14T20:35:37.790Z,101022.00
2019-04-14T20:38:08.604Z,101017.47
2019-04-14T20:40:39.054Z,101023.71
2019-04-14T20:43:10.070Z,101019.25
2019-04-14T20:45:40.991Z,101023.22
2019-04-14T20:48:11.814Z,101015.76
2019-04-14T20:50:42.437Z,101017.92
2019-04-14T20:53:12.918Z,101017.84
2019-04-14T20:55:47.195Z,101023.70
2019-04-14T20:58:15.503Z,101015.30
2019-04-14T21:00:46.359Z,101016.91
2019-04-14T21:03:36.286Z,101020.29
2019-04-14T21:06:21.044Z,101014.53
2019-04-14T21:09:16.686Z,101017.08
2019-04-14T21:12:12.211Z,101021.90
2019-04-14T21:15:01.620Z,101019.34
2019-04-14T21:17:47.146Z,101020.57
2019-04-14T21:20:25.950Z,101025.14
2019-04-14T21:23:25.876Z,101026.81
2019-04-14T21:26:04.463Z,101022.84
2019-04-14T21:28:41.150Z,101026.05
2019-04-14T21:31:16.831Z,101025.01
2019-04-14T21:34:05.452Z,101027.20
2019-04-14T21:36:57.969Z,101031.95
2019-04-14T21:39:50.425Z,101028.53
2019-04-14T21:42:21.303Z,101029.47
2019-04-14T21:44:52.082Z,101027.97
2019-04-14T21:47:22.639Z,101031.08
2019-04-14T21:49:53.076Z,101029.20
2019-04-14T21:52:44.332Z,101034.01
2019-04-14T21:55:14.778Z,101033.45
2019-04-14T21:58:02.798Z,101035.34
2019-04-14T22:01:28.710Z,101027.97
2019-04-14T22:04:21.767Z,101033.06
2019-04-14T22:06:52.601Z,101037.05
2019-04-14T22:09:28.810Z,101035.62
2019-04-14T22:11:59.593Z,101039.98
2019-04-14T22:14:30.035Z,101038.86
2019-04-14T22:17:00.537Z,101035.92
2019-04-14T22:19:31.321Z,101040.74
2019-04-14T22:22:01.763Z,101045.38
2019-04-14T22:24:32.607Z,101044.27
2019-04-14T22:27:03.076Z,101043.87
2019-04-14T22:29:33.821Z,101043.49
2019-04-14T22:32:04.662Z,101044.44
2019-04-14T22:34:35.397Z,101046.14
2019-04-14T22:37:05.829Z,101050.89
2019-04-14T22:39:39.126Z,101053.34
2019-04-14T22:42:08.797Z,101056.27
2019-04-14T22:44:39.309Z,101057.52
2019-04-14T22:47:09.819Z,101066.70
2019-04-14T22:49:40.644Z,101065.38
2019-04-14T22:52:11.079Z,101068.86
2019-04-14T22:54:41.562Z,101076.16
2019-04-14T22:57:12.000Z,101073.89
2019-04-14T22:59:42.467Z,101078.89
2019-04-14T23:02:20.895Z,101075.13
2019-04-14T23:05:16.479Z,101079.47
2019-04-14T23:07:57.304Z,101071.83
2019-04-14T23:10:51.002Z,101072.86
2019-04-14T23:13:43.678Z,101070.97
2019-04-14T23:16:33.072Z,101072.65
2019-04-14T23:19:11.079Z,101073.05
2019-04-14T23:21:45.786Z,101076.26
2019-04-14T23:24:21.288Z,101073.81
2019-04-14T23:26:53.222Z,101081.37
2019-04-14T23:29:24.330Z,101081.37
2019-04-14T23:31:54.814Z,101084.02
2019-04-14T23:34:25.248Z,101079.58
2019-04-14T23:36:55.981Z,101086.48
2019-04-14T23:39:26.469Z,101088.02
2019-04-14T23:41:57.778Z,101087.81
2019-04-14T23:44:28.218Z,101088.37
2019-04-14T23:46:59.033Z,101084.04
2019-04-14T23:49:29.536Z,101087.14
2019-04-14T23:51:59.998Z,101081.74
2019-04-14T23:54:30.567Z,101077.87
2019-04-14T23:57:05.872Z,101070.40
2019-04-14T23:59:33.921Z,101072.01
